createdAt,value
2024-02-12T00:02:20.466Z,94472.88
2024-02-12T00:04:49.014Z,94457.81
2024-02-12T00:07:19.526Z,94732.41
2024-02-12T00:09:46.514Z,94594.53
2024-02-12T00:12:14.343Z,94459.59
2024-02-12T00:14:41.253Z,94747.22
2024-02-12T00:17:11.032Z,94614.31
2024-02-12T00:19:38.908Z,94639.47
2024-02-12T00:22:05.762Z,94707.22
2024-02-12T00:24:33.625Z,94619.16
2024-02-12T00:27:02.291Z,94613.53
2024-02-12T00:29:29.464Z,94704.81
2024-02-12T00:31:59.569Z,94752.03
2024-02-12T00:34:27.744Z,94687.94
2024-02-12T00:36:54.458Z,94784.06
2024-02-12T00:39:21.370Z,94676.63
2024-02-12T00:41:52.037Z,94666.09
2024-02-12T00:44:21.746Z,94749.81
2024-02-12T00:46:48.551Z,94749.97
2024-02-12T00:49:18.967Z,94711.19
2024-02-12T00:51:45.815Z,94744.22
2024-02-12T00:54:16.050Z,94670.50
2024-02-12T00:56:45.926Z,94730.94
2024-02-12T00:59:13.210Z,94720.41
2024-02-12T01:01:45.188Z,94695.19
2024-02-12T01:04:11.895Z,94674.59
2024-02-12T01:06:39.949Z,94741.94
2024-02-12T01:09:07.160Z,94727.19
2024-02-12T01:11:35.664Z,94825.41
2024-02-12T01:14:02.403Z,94754.56
2024-02-12T01:16:31.209Z,94722.97
2024-02-12T01:18:57.961Z,94651.22
2024-02-12T01:21:24.654Z,94715.63
2024-02-12T01:23:51.368Z,94729.38
2024-02-12T01:26:18.105Z,94756.91
2024-02-12T01:28:45.164Z,94733.41
2024-02-12T01:31:19.175Z,94693.31
2024-02-12T01:33:47.894Z,94578.84
2024-02-12T01:36:15.218Z,94717.34
2024-02-12T01:38:42.148Z,94705.06
2024-02-12T01:41:08.802Z,94770.75
2024-02-12T01:43:38.141Z,94509.91
2024-02-12T01:46:08.079Z,94698.81
2024-02-12T01:48:37.141Z,94768.38
2024-02-12T01:51:10.711Z,94624.47
2024-02-12T01:53:38.837Z,94609.63
2024-02-12T01:56:09.804Z,94762.38
2024-02-12T01:58:42.091Z,94656.91
2024-02-12T02:01:09.265Z,94617.88
2024-02-12T02:03:36.265Z,94435.09
2024-02-12T02:06:03.149Z,94808.59
2024-02-12T02:08:38.279Z,94616.78
2024-02-12T02:11:06.348Z,94701.00
2024-02-12T02:13:46.024Z,94453.47
2024-02-12T02:16:13.289Z,94402.34
2024-02-12T02:18:40.300Z,94621.38
2024-02-12T02:21:11.439Z,94618.81
2024-02-12T02:23:41.480Z,94631.97
2024-02-12T02:26:08.482Z,94770.97
2024-02-12T02:28:35.659Z,94813.75
2024-02-12T02:31:02.354Z,94622.28
2024-02-12T02:33:29.189Z,94642.81
2024-02-12T02:35:56.053Z,94800.00
2024-02-12T02:38:24.306Z,94609.34
2024-02-12T02:40:51.257Z,94634.94
2024-02-12T02:43:17.906Z,94625.66
2024-02-12T02:45:44.550Z,94594.59
2024-02-12T02:48:11.239Z,94686.16
2024-02-12T02:50:38.113Z,94501.13
2024-02-12T02:53:04.952Z,94830.53
2024-02-12T02:55:31.601Z,94654.78
2024-02-12T02:58:02.991Z,94679.81
2024-02-12T03:00:30.557Z,94693.72
2024-02-12T03:02:58.493Z,94510.72
2024-02-12T03:05:28.721Z,94670.50
2024-02-12T03:07:55.864Z,94819.41
2024-02-12T03:10:22.584Z,94797.19
2024-02-12T03:12:49.666Z,94723.56
2024-02-12T03:15:16.906Z,94560.03
2024-02-12T03:17:44.835Z,94662.19
2024-02-12T03:20:13.072Z,94845.69
2024-02-12T03:22:40.935Z,94625.84
2024-02-12T03:25:09.528Z,94802.03
2024-02-12T03:27:36.607Z,94633.06
2024-02-12T03:30:04.066Z,94681.28
2024-02-12T03:32:30.828Z,94837.53
2024-02-12T03:35:02.530Z,94819.72
2024-02-12T03:37:29.225Z,94818.94
2024-02-12T03:39:56.028Z,94791.94
2024-02-12T03:42:28.643Z,94701.38
2024-02-12T03:44:55.704Z,94850.34
2024-02-12T03:47:29.333Z,94839.53
2024-02-12T03:50:20.991Z,94811.31
2024-02-12T03:53:06.298Z,94773.06
2024-02-12T03:55:51.655Z,94721.09
2024-02-12T03:58:36.889Z,94868.56
2024-02-12T04:01:03.593Z,94701.91
2024-02-12T04:03:30.395Z,94653.03
2024-02-12T04:05:59.245Z,94708.97
2024-02-12T04:08:25.994Z,94743.50
2024-02-12T04:10:52.690Z,94676.47
2024-02-12T04:13:20.512Z,94806.97
2024-02-12T04:15:47.193Z,94717.00
2024-02-12T04:18:14.059Z,94759.41
2024-02-12T04:20:41.269Z,94627.59
2024-02-12T04:23:12.311Z,94692.31
2024-02-12T04:25:38.960Z,94750.91
2024-02-12T04:28:06.291Z,94739.09
2024-02-12T04:30:33.004Z,94501.50
2024-02-12T04:33:00.798Z,94701.78
2024-02-12T04:35:27.653Z,94673.22
2024-02-12T04:37:56.432Z,94464.16
2024-02-12T04:40:26.393Z,94715.22
2024-02-12T04:42:54.020Z,94770.75
2024-02-12T04:45:25.363Z,94636.75
2024-02-12T04:47:57.948Z,94677.75
2024-02-12T04:50:24.823Z,94612.56
2024-02-12T04:52:52.044Z,94461.00
2024-02-12T04:55:18.820Z,94637.56
2024-02-12T04:57:45.694Z,94714.91
2024-02-12T05:00:14.112Z,94690.28
2024-02-12T05:02:41.871Z,94766.53
2024-02-12T05:05:09.783Z,94805.84
2024-02-12T05:07:36.558Z,94663.56
2024-02-12T05:10:03.472Z,94733.88
2024-02-12T05:12:30.757Z,94721.25
2024-02-12T05:14:57.763Z,94683.63
2024-02-12T05:17:43.346Z,94518.66
2024-02-12T05:20:29.153Z,94780.13
2024-02-12T05:22:55.938Z,94640.88
2024-02-12T05:25:22.607Z,94730.13
2024-02-12T05:27:49.267Z,94655.31
2024-02-12T05:30:15.957Z,94785.75
2024-02-12T05:32:42.937Z,94939.78
2024-02-12T05:35:11.199Z,94597.78
2024-02-12T05:37:38.049Z,94886.16
2024-02-12T05:40:08.843Z,94735.22
2024-02-12T05:42:35.600Z,94802.09
2024-02-12T05:45:02.335Z,94807.69
2024-02-12T05:47:29.236Z,94657.84
2024-02-12T05:49:56.362Z,94587.88
2024-02-12T05:52:23.159Z,94689.09
2024-02-12T05:54:49.880Z,94615.84
2024-02-12T05:57:16.580Z,94965.34
2024-02-12T05:59:43.343Z,94761.19
2024-02-12T06:02:10.057Z,94897.13
2024-02-12T06:04:36.796Z,94586.72
2024-02-12T06:07:04.827Z,94779.06
2024-02-12T06:09:32.310Z,94814.63
2024-02-12T06:11:59.138Z,94834.34
2024-02-12T06:14:26.167Z,94621.19
2024-02-12T06:16:52.896Z,94762.72
2024-02-12T06:19:19.796Z,94785.63
2024-02-12T06:21:49.222Z,94752.09
2024-02-12T06:24:15.979Z,94909.50
2024-02-12T06:26:44.134Z,94846.72
2024-02-12T06:29:12.400Z,94654.50
2024-02-12T06:31:43.490Z,94924.28
2024-02-12T06:34:11.882Z,94759.81
2024-02-12T06:36:38.645Z,94802.13
2024-02-12T06:39:06.320Z,94901.59
2024-02-12T06:41:34.372Z,94669.25
2024-02-12T06:44:01.508Z,94945.13
2024-02-12T06:46:28.194Z,94948.50
2024-02-12T06:48:54.963Z,94673.75
2024-02-12T06:51:21.684Z,94992.34
2024-02-12T06:53:48.375Z,94855.41
2024-02-12T06:56:15.072Z,94810.81
2024-02-12T06:58:43.434Z,94852.31
2024-02-12T07:01:14.062Z,94838.38
2024-02-12T07:03:42.720Z,94819.88
2024-02-12T07:06:12.677Z,94685.75
2024-02-12T07:08:41.884Z,94895.97
2024-02-12T07:11:10.006Z,94777.59
2024-02-12T07:13:36.705Z,94637.19
2024-02-12T07:16:04.085Z,94862.56
2024-02-12T07:18:30.861Z,94920.31
2024-02-12T07:20:57.773Z,94875.41
2024-02-12T07:23:24.455Z,94844.75
2024-02-12T07:25:51.172Z,94832.25
2024-02-12T07:28:19.357Z,94813.63
2024-02-12T07:30:46.627Z,94766.69
2024-02-12T07:33:13.419Z,94909.75
2024-02-12T07:35:40.274Z,94869.66
2024-02-12T07:38:07.237Z,95032.69
2024-02-12T07:40:34.789Z,95012.47
2024-02-12T07:43:01.784Z,94708.47
2024-02-12T07:45:29.148Z,94807.25
2024-02-12T07:47:56.532Z,94885.47
2024-02-12T07:50:23.370Z,94960.38
2024-02-12T07:52:50.018Z,94828.34
2024-02-12T07:55:16.686Z,95035.97
2024-02-12T07:57:45.645Z,95005.94
2024-02-12T08:00:16.269Z,94760.25
2024-02-12T08:02:46.494Z,94980.44
2024-02-12T08:05:13.763Z,95047.56
2024-02-12T08:07:51.950Z,94918.91
2024-02-12T08:10:24.598Z,94998.28
2024-02-12T08:12:51.309Z,94953.03
2024-02-12T08:15:18.370Z,94866.63
2024-02-12T08:17:45.053Z,94957.63
2024-02-12T08:20:11.941Z,95031.59
2024-02-12T08:22:38.631Z,94968.81
2024-02-12T08:25:06.371Z,94838.66
2024-02-12T08:27:33.621Z,95009.00
2024-02-12T08:30:02.142Z,94964.03
2024-02-12T08:32:30.032Z,94971.69
2024-02-12T08:34:56.915Z,95029.00
2024-02-12T08:37:23.983Z,95066.00
2024-02-12T08:39:50.850Z,94943.28
2024-02-12T08:42:17.642Z,95008.94
2024-02-12T08:44:49.038Z,95085.88
2024-02-12T08:47:15.824Z,95062.84
2024-02-12T08:49:44.274Z,95072.03
2024-02-12T08:52:10.905Z,94844.47
2024-02-12T08:54:38.735Z,94809.94
2024-02-12T08:57:07.297Z,95052.97
2024-02-12T08:59:35.631Z,95027.13
2024-02-12T09:02:02.515Z,94951.75
2024-02-12T09:04:29.238Z,94857.34
2024-02-12T09:06:57.069Z,95011.72
2024-02-12T09:09:23.840Z,94859.41
2024-02-12T09:11:50.516Z,94969.66
2024-02-12T09:14:18.357Z,94882.72
2024-02-12T09:16:45.501Z,95033.00
2024-02-12T09:19:12.458Z,95062.69
2024-02-12T09:21:39.647Z,94826.84
2024-02-12T09:24:08.683Z,94993.25
2024-02-12T09:26:35.660Z,94946.47
2024-02-12T09:29:03.060Z,94833.28
2024-02-12T09:31:32.687Z,95110.75
2024-02-12T09:34:01.031Z,94941.84
2024-02-12T09:36:28.138Z,95007.88
2024-02-12T09:38:55.014Z,94858.19
2024-02-12T09:41:27.437Z,95045.19
2024-02-12T09:43:54.237Z,94978.94
2024-02-12T09:46:21.126Z,94969.09
2024-02-12T09:48:51.363Z,95028.41
2024-02-12T09:51:19.083Z,94989.72
2024-02-12T09:53:46.104Z,94995.16
2024-02-12T09:56:12.955Z,94851.03
2024-02-12T09:58:39.757Z,95071.66
2024-02-12T10:01:06.729Z,95037.28
2024-02-12T10:03:36.508Z,95004.28
2024-02-12T10:06:03.592Z,94966.50
2024-02-12T10:08:31.910Z,95053.69
2024-02-12T10:10:58.670Z,94916.06
2024-02-12T10:13:27.607Z,95145.25
2024-02-12T10:15:54.664Z,94940.75
2024-02-12T10:18:22.103Z,95085.41
2024-02-12T10:20:50.289Z,94797.81
2024-02-12T10:23:17.713Z,95062.41
2024-02-12T10:25:49.067Z,94784.34
2024-02-12T10:28:19.539Z,95071.19
2024-02-12T10:30:47.369Z,94776.28
2024-02-12T10:33:15.058Z,95010.28
2024-02-12T10:35:49.921Z,95125.41
2024-02-12T10:38:17.178Z,95049.44
2024-02-12T10:40:54.632Z,95132.44
2024-02-12T10:43:24.599Z,95120.94
2024-02-12T10:45:52.960Z,95129.13
2024-02-12T10:48:19.665Z,95019.72
2024-02-12T10:50:48.563Z,94988.81
2024-02-12T10:53:16.913Z,94891.78
2024-02-12T10:55:45.162Z,94971.53
2024-02-12T10:58:15.290Z,94998.53
2024-02-12T11:00:49.476Z,94939.53
2024-02-12T11:03:35.560Z,94988.75
2024-02-12T11:06:02.471Z,94823.19
2024-02-12T11:08:29.297Z,94884.28
2024-02-12T11:11:00.773Z,95092.03
2024-02-12T11:13:37.737Z,95063.34
2024-02-12T11:16:07.958Z,94831.44
2024-02-12T11:18:36.008Z,94924.28
2024-02-12T11:21:03.065Z,94987.94
2024-02-12T11:23:31.816Z,94888.59
2024-02-12T11:26:01.852Z,95078.16
2024-02-12T11:28:29.593Z,94986.44
2024-02-12T11:30:56.350Z,94842.19
2024-02-12T11:33:26.209Z,95132.47
2024-02-12T11:36:09.533Z,95106.59
2024-02-12T11:38:52.168Z,95063.69
2024-02-12T11:41:19.427Z,95091.69
2024-02-12T11:43:47.981Z,95129.50
2024-02-12T11:46:17.173Z,95134.41
2024-02-12T11:48:44.234Z,94872.09
2024-02-12T11:51:11.062Z,95124.44
2024-02-12T11:53:40.946Z,95063.22
2024-02-12T11:56:08.017Z,94938.94
2024-02-12T11:58:34.824Z,95079.38
2024-02-12T12:01:01.844Z,95057.19
2024-02-12T12:03:28.598Z,95064.66
2024-02-12T12:05:56.217Z,94979.66
2024-02-12T12:08:28.981Z,94986.84
2024-02-12T12:11:04.360Z,95110.56
2024-02-12T12:13:31.458Z,95019.31
2024-02-12T12:15:58.577Z,94987.16
2024-02-12T12:18:26.252Z,94840.28
2024-02-12T12:20:56.327Z,95019.13
2024-02-12T12:23:23.255Z,94959.25
2024-02-12T12:25:53.718Z,95017.69
2024-02-12T12:28:21.251Z,95030.91
2024-02-12T12:30:47.949Z,95108.91
2024-02-12T12:33:14.919Z,95085.09
2024-02-12T12:35:41.849Z,95048.06
2024-02-12T12:38:13.266Z,95128.53
2024-02-12T12:40:40.052Z,95093.13
2024-02-12T12:43:12.028Z,95071.66
2024-02-12T12:45:39.902Z,95089.00
2024-02-12T12:48:06.946Z,95024.13
2024-02-12T12:50:34.035Z,95048.38
2024-02-12T12:53:00.767Z,95074.41
2024-02-12T12:55:27.442Z,95076.16
2024-02-12T12:57:54.555Z,95119.22
2024-02-12T13:00:27.415Z,94838.59
2024-02-12T13:02:54.424Z,95101.84
2024-02-12T13:05:22.428Z,95182.91
2024-02-12T13:08:16.643Z,95120.50
2024-02-12T13:13:15.206Z,95105.69
2024-02-12T13:15:44.562Z,95131.19
2024-02-12T13:18:19.398Z,95128.97
2024-02-12T13:20:48.615Z,95168.81
2024-02-12T13:23:16.144Z,95045.41
2024-02-12T13:25:42.831Z,95123.97
2024-02-12T13:28:13.137Z,95086.28
2024-02-12T13:30:40.089Z,94892.81
2024-02-12T13:33:08.206Z,94722.84
2024-02-12T13:35:38.851Z,94881.41
2024-02-12T13:38:05.981Z,94877.66
2024-02-12T13:40:34.101Z,94982.66
2024-02-12T13:43:05.903Z,95052.50
2024-02-12T13:45:33.797Z,94985.06
2024-02-12T13:48:01.551Z,95117.09
2024-02-12T13:50:28.613Z,95090.28
2024-02-12T13:52:55.327Z,95129.56
2024-02-12T13:55:22.259Z,95035.22
2024-02-12T13:57:51.710Z,95189.88
2024-02-12T14:00:43.746Z,95159.38
2024-02-12T14:03:10.115Z,95024.63
2024-02-12T14:05:37.132Z,95196.66
2024-02-12T14:08:05.757Z,95093.91
2024-02-12T14:10:32.618Z,95200.66
2024-02-12T14:12:59.489Z,95038.22
2024-02-12T14:16:03.162Z,95207.34
2024-02-12T14:18:18.688Z,95139.09
2024-02-12T14:20:45.988Z,95183.09
2024-02-12T14:23:12.788Z,94903.06
2024-02-12T14:25:41.608Z,95133.31
2024-02-12T14:28:10.972Z,95094.03
2024-02-12T14:30:37.961Z,95119.00
2024-02-12T14:33:06.608Z,95115.16
2024-02-12T14:35:40.502Z,95180.84
2024-02-12T14:38:07.507Z,95149.66
2024-02-12T14:40:34.176Z,95200.00
2024-02-12T14:43:00.806Z,95195.53
2024-02-12T14:45:31.492Z,95170.16
2024-02-12T14:48:06.441Z,95222.06
2024-02-12T14:50:34.431Z,95179.84
2024-02-12T14:53:01.849Z,95133.56
2024-02-12T14:55:28.657Z,95109.25
2024-02-12T14:57:55.373Z,95247.41
2024-02-12T15:00:25.503Z,95206.34
2024-02-12T15:02:53.338Z,95174.56
2024-02-12T15:05:20.152Z,95244.56
2024-02-12T15:07:47.870Z,94934.56
2024-02-12T15:10:22.629Z,95210.47
2024-02-12T15:12:49.641Z,95275.06
2024-02-12T15:15:22.265Z,94982.72
2024-02-12T15:17:53.601Z,95073.75
2024-02-12T15:20:22.744Z,95253.09
2024-02-12T15:22:51.272Z,95180.56
2024-02-12T15:25:20.784Z,95219.31
2024-02-12T15:27:48.292Z,95299.97
2024-02-12T15:30:15.956Z,95157.78
2024-02-12T15:32:43.273Z,95154.13
2024-02-12T15:35:16.198Z,95205.56
2024-02-12T15:37:46.978Z,95221.34
2024-02-12T15:40:18.692Z,95198.66
2024-02-12T15:42:47.027Z,95240.94
2024-02-12T15:45:13.783Z,95178.13
2024-02-12T15:47:46.638Z,95205.59
2024-02-12T15:50:13.638Z,95167.38
2024-02-12T15:52:43.601Z,95226.13
2024-02-12T15:55:12.177Z,95054.75
2024-02-12T15:57:39.522Z,95237.53
2024-02-12T16:00:15.412Z,95267.28
2024-02-12T16:02:45.961Z,95280.19
2024-02-12T16:05:51.137Z,95316.88
2024-02-12T16:08:18.753Z,95225.94
2024-02-12T16:10:45.489Z,95230.28
2024-02-12T16:13:13.360Z,95278.53
2024-02-12T16:15:40.860Z,95176.75
2024-02-12T16:18:09.212Z,95269.22
2024-02-12T16:20:36.523Z,95312.22
2024-02-12T16:23:03.766Z,95330.91
2024-02-12T16:25:30.974Z,95366.03
2024-02-12T16:28:01.961Z,95236.16
2024-02-12T16:30:28.610Z,95320.66
2024-02-12T16:32:55.924Z,95318.75
2024-02-12T16:35:22.884Z,95296.19
2024-02-12T16:37:49.584Z,95319.53
2024-02-12T16:40:16.285Z,95289.47
2024-02-12T16:42:43.618Z,95272.75
2024-02-12T16:45:10.777Z,95208.41
2024-02-12T16:47:39.973Z,95367.56
2024-02-12T16:50:08.350Z,95321.06
2024-02-12T16:52:35.305Z,95330.91
2024-02-12T16:55:02.141Z,95280.53
2024-02-12T16:57:29.536Z,95277.47
2024-02-12T16:59:56.370Z,95267.03
2024-02-12T17:02:23.131Z,95337.53
2024-02-12T17:04:49.945Z,95379.91
2024-02-12T17:07:19.527Z,95295.22
2024-02-12T17:09:48.079Z,95207.03
2024-02-12T17:12:14.779Z,95277.22
2024-02-12T17:14:48.522Z,95213.31
2024-02-12T17:17:17.359Z,95315.34
2024-02-12T17:19:45.117Z,95356.91
2024-02-12T17:22:12.649Z,95395.91
2024-02-12T17:24:39.309Z,95287.06
2024-02-12T17:27:05.991Z,95357.44
2024-02-12T17:29:33.396Z,95348.75
2024-02-12T17:32:02.315Z,95349.72
2024-02-12T17:34:49.338Z,95417.06
2024-02-12T17:37:16.598Z,95428.84
2024-02-12T17:39:45.654Z,95389.53
2024-02-12T17:42:17.044Z,95325.75
2024-02-12T17:44:44.617Z,95372.59
2024-02-12T17:47:11.283Z,95330.06
2024-02-12T17:49:39.307Z,95319.75
2024-02-12T17:52:07.974Z,95192.91
2024-02-12T17:54:34.740Z,95115.31
2024-02-12T17:57:01.618Z,95355.31
2024-02-12T17:59:28.776Z,95283.25
2024-02-12T18:01:55.392Z,95392.03
2024-02-12T18:04:22.133Z,95382.03
2024-02-12T18:06:49.258Z,95383.47
2024-02-12T18:09:16.055Z,95153.78
2024-02-12T18:11:42.747Z,95378.78
2024-02-12T18:14:11.339Z,95049.59
2024-02-12T18:16:38.103Z,95443.28
2024-02-12T18:19:05.352Z,95401.84
2024-02-12T18:21:32.078Z,95170.38
2024-02-12T18:23:58.799Z,95101.91
2024-02-12T18:26:26.389Z,95422.75
2024-02-12T18:28:53.308Z,95479.53
2024-02-12T18:31:20.671Z,95370.34
2024-02-12T18:33:49.537Z,95276.00
2024-02-12T18:36:16.454Z,95236.72
2024-02-12T18:38:43.249Z,95143.56
2024-02-12T18:41:13.535Z,95404.34
2024-02-12T18:43:40.227Z,95457.25
2024-02-12T18:46:07.504Z,95256.44
2024-02-12T18:48:34.349Z,95540.31
2024-02-12T18:51:01.526Z,95467.72
2024-02-12T18:53:28.415Z,95505.94
2024-02-12T18:55:55.544Z,95246.75
2024-02-12T18:58:22.648Z,95443.31
2024-02-12T19:00:49.361Z,95333.75
2024-02-12T19:03:18.800Z,95488.78
2024-02-12T19:05:47.177Z,95442.78
2024-02-12T19:08:17.449Z,95522.19
2024-02-12T19:10:44.417Z,95524.13
2024-02-12T19:13:14.025Z,95428.53
2024-02-12T19:15:43.533Z,95376.91
2024-02-12T19:18:10.475Z,95538.34
2024-02-12T19:20:37.322Z,95364.06
2024-02-12T19:23:08.376Z,95437.41
2024-02-12T19:25:38.408Z,95449.31
2024-02-12T19:28:10.792Z,95445.56
2024-02-12T19:30:38.168Z,95479.97
2024-02-12T19:33:07.804Z,95463.88
2024-02-12T19:35:34.670Z,95487.09
2024-02-12T19:38:01.502Z,95497.84
2024-02-12T19:40:33.483Z,95560.38
2024-02-12T19:43:00.827Z,95566.84
2024-02-12T19:45:27.666Z,95424.34
2024-02-12T19:47:54.906Z,95397.84
2024-02-12T19:50:25.133Z,95443.34
2024-02-12T19:52:55.182Z,95474.06
2024-02-12T19:55:21.926Z,95356.91
2024-02-12T19:57:49.482Z,95550.41
2024-02-12T20:00:18.221Z,95522.22
2024-02-12T20:02:45.866Z,95492.69
2024-02-12T20:05:12.895Z,95481.94
2024-02-12T20:07:39.797Z,95558.38
2024-02-12T20:10:11.501Z,95370.88
2024-02-12T20:12:38.614Z,95578.59
2024-02-12T20:15:08.859Z,95548.97
2024-02-12T20:17:35.659Z,95499.22
2024-02-12T20:20:06.537Z,95158.06
2024-02-12T20:22:33.977Z,95324.00
2024-02-12T20:25:00.677Z,95456.09
2024-02-12T20:27:27.653Z,95472.63
2024-02-12T20:29:54.383Z,95587.78
2024-02-12T20:32:22.880Z,95484.09
2024-02-12T20:34:49.783Z,95567.44
2024-02-12T20:37:17.373Z,95484.16
2024-02-12T20:39:48.046Z,95632.00
2024-02-12T20:42:14.963Z,95480.41
2024-02-12T20:44:41.777Z,95560.53
2024-02-12T20:47:08.830Z,95489.16
2024-02-12T20:49:37.160Z,95630.69
2024-02-12T20:52:05.206Z,95588.59
2024-02-12T20:54:33.818Z,95609.50
2024-02-12T20:57:01.210Z,95518.75
2024-02-12T20:59:27.915Z,95624.25
2024-02-12T21:01:54.700Z,95621.69
2024-02-12T21:04:21.528Z,95489.09
2024-02-12T21:06:48.342Z,95609.78
2024-02-12T21:09:15.057Z,95651.47
2024-02-12T21:11:44.075Z,95599.88
2024-02-12T21:14:14.313Z,95524.97
2024-02-12T21:16:41.509Z,95597.25
2024-02-12T21:19:08.312Z,95650.38
2024-02-12T21:21:45.480Z,95614.91
2024-02-12T21:24:13.314Z,95687.16
2024-02-12T21:26:43.779Z,95582.00
2024-02-12T21:29:11.794Z,95651.97
2024-02-12T21:31:41.079Z,95483.28
2024-02-12T21:34:14.736Z,95511.69
2024-02-12T21:36:41.742Z,95534.47
2024-02-12T21:39:13.178Z,95361.97
2024-02-12T21:41:52.145Z,95538.56
2024-02-12T21:44:20.284Z,95661.00
2024-02-12T21:46:47.367Z,95684.81
2024-02-12T21:49:14.399Z,95655.69
2024-02-12T21:51:41.381Z,95671.06
2024-02-12T21:54:08.227Z,95613.25
2024-02-12T21:56:35.227Z,95527.94
2024-02-12T21:59:02.613Z,95677.56
2024-02-12T22:01:30.764Z,95668.13
2024-02-12T22:03:58.033Z,95635.13
2024-02-12T22:06:25.384Z,95491.94
2024-02-12T22:08:52.253Z,95669.56
2024-02-12T22:11:19.069Z,95744.00
2024-02-12T22:13:48.552Z,95425.94
2024-02-12T22:16:15.320Z,95245.00
2024-02-12T22:18:42.138Z,95699.34
2024-02-12T22:21:09.696Z,95686.66
2024-02-12T22:23:37.992Z,95665.22
2024-02-12T22:26:06.016Z,95735.44
2024-02-12T22:28:33.559Z,95719.53
2024-02-12T22:31:00.424Z,95757.47
2024-02-12T22:33:27.453Z,95669.56
2024-02-12T22:35:55.098Z,95692.22
2024-02-12T22:38:22.724Z,95789.88
2024-02-12T22:40:49.593Z,95586.84
2024-02-12T22:43:16.298Z,95751.25
2024-02-12T22:45:43.624Z,95691.00
2024-02-12T22:48:10.886Z,95652.94
2024-02-12T22:50:41.055Z,95698.00
2024-02-12T22:53:11.827Z,95530.16
2024-02-12T22:55:39.618Z,95796.03
2024-02-12T22:58:09.653Z,95718.78
2024-02-12T23:00:42.409Z,95662.09
2024-02-12T23:03:09.245Z,95537.81
2024-02-12T23:05:36.021Z,95665.31
2024-02-12T23:08:02.810Z,95711.91
2024-02-12T23:10:30.288Z,95700.25
2024-02-12T23:12:57.006Z,95745.53
2024-02-12T23:15:23.811Z,95690.44
2024-02-12T23:17:51.875Z,95627.56
2024-02-12T23:20:19.462Z,95722.47
2024-02-12T23:22:49.147Z,95603.69
2024-02-12T23:25:15.761Z,95808.09
2024-02-12T23:27:42.419Z,95768.09
2024-02-12T23:30:10.030Z,95775.72
2024-02-12T23:32:36.986Z,95431.91
2024-02-12T23:35:06.509Z,95711.81
2024-02-12T23:37:38.906Z,95771.22
2024-02-12T23:40:10.841Z,95757.84
2024-02-12T23:42:41.825Z,95753.81
2024-02-12T23:45:11.919Z,95704.91
2024-02-12T23:47:39.415Z,95803.84
2024-02-12T23:50:09.600Z,95656.75
2024-02-12T23:52:36.508Z,95747.34
2024-02-12T23:55:03.274Z,95763.03
2024-02-12T23:57:30.020Z,95640.97
2024-02-12T23:59:56.830Z,95740.06
